Time;durP1;ratioP1;P1;durP2;ratioP2;P2;SDS_P1;SDS_P2;PMS_P1;PMS_P2;Temp;Humidity;BMP_temperature;BMP_pressure;BME280_temperature;BME280_humidity;BME280_pressure;Samples;Min_cycle;Max_cycle;Signal;HPM_P1;HPM_P2
2022/10/03 00:00:03;;;;;;;5.70;5.20;;;29.10;64.70;;;;;;5141405;27;20454;-71
2022/10/03 00:02:56;;;;;;;5.20;4.63;;;29.00;64.40;;;;;;5144107;27;20536;-70
2022/10/03 00:05:41;;;;;;;5.37;4.97;;;28.90;64.60;;;;;;5135118;27;20475;-71
2022/10/03 00:08:28;;;;;;;4.60;4.20;;;28.70;65.20;;;;;;5144250;27;20548;-71
2022/10/03 00:11:08;;;;;;;4.83;4.43;;;28.70;65.60;;;;;;5147047;27;20451;-70
2022/10/03 00:13:47;;;;;;;4.53;4.20;;;28.50;68.10;;;;;;5147804;27;20561;-71
2022/10/03 00:16:25;;;;;;;5.00;4.50;;;28.50;67.60;;;;;;5148238;27;20435;-71
2022/10/03 00:19:02;;;;;;;4.70;4.30;;;28.40;68.50;;;;;;5147738;27;20463;-71
2022/10/03 00:21:45;;;;;;;4.50;4.20;;;28.40;69.20;;;;;;5147399;27;20463;-71
2022/10/03 00:24:29;;;;;;;5.30;4.90;;;28.30;67.70;;;;;;5147858;27;20479;-71
2022/10/03 00:27:09;;;;;;;5.90;5.00;;;28.30;68.20;;;;;;5147608;27;20565;-71
2022/10/03 00:29:54;;;;;;;4.60;4.20;;;28.20;68.10;;;;;;5147119;27;20447;-71
2022/10/03 00:32:42;;;;;;;4.40;4.00;;;28.20;68.90;;;;;;5146500;27;20449;-71
2022/10/03 00:35:33;;;;;;;4.60;4.20;;;28.00;68.10;;;;;;5147645;27;20532;-71
2022/10/03 00:38:18;;;;;;;4.80;4.40;;;27.90;70.00;;;;;;5113192;27;20511;-71
2022/10/03 00:41:33;;;;;;;4.13;3.83;;;27.80;70.00;;;;;;5147046;27;20440;-71
2022/10/03 00:44:31;;;;;;;4.77;4.37;;;27.70;69.90;;;;;;5136208;27;20484;-71
2022/10/03 00:47:29;;;;;;;4.60;4.20;;;27.70;70.90;;;;;;5147265;27;20502;-71
2022/10/03 00:50:37;;;;;;;4.80;4.40;;;27.50;71.00;;;;;;5147097;27;20506;-71
2022/10/03 00:53:25;;;;;;;4.20;3.80;;;27.40;70.00;;;;;;5045249;28;20450;-70
2022/10/03 00:56:11;;;;;;;4.13;3.80;;;27.30;70.50;;;;;;5058977;28;20489;-71
2022/10/03 00:59:04;;;;;;;4.70;4.30;;;27.20;70.80;;;;;;5063727;28;20450;-70
2022/10/03 01:01:45;;;;;;;3.70;3.40;;;27.10;71.30;;;;;;5063324;28;20564;-69
2022/10/03 01:04:45;;;;;;;4.47;3.43;;;27.00;72.00;;;;;;5063279;28;20480;-70
2022/10/03 01:07:32;;;;;;;4.77;4.23;;;26.90;72.70;;;;;;5058286;28;20475;-70
2022/10/03 01:10:12;;;;;;;4.87;4.47;;;26.90;73.90;;;;;;5061016;28;20448;-69
2022/10/03 01:12:56;;;;;;;8.60;3.87;;;27.10;75.10;;;;;;5061901;28;20827;-69
2022/10/03 01:15:33;;;;;;;4.60;4.20;;;26.90;74.30;;;;;;5061975;28;20492;-70
2022/10/03 01:18:25;;;;;;;4.10;3.80;;;26.70;76.60;;;;;;5061580;28;20507;-69
2022/10/03 01:21:03;;;;;;;4.73;3.93;;;26.60;76.90;;;;;;5061186;28;20473;-69
2022/10/03 01:24:05;;;;;;;4.10;3.80;;;26.40;77.70;;;;;;5061762;28;20505;-70
2022/10/03 01:26:57;;;;;;;5.00;4.60;;;26.20;79.80;;;;;;5010271;28;20520;-70
2022/10/03 01:32:45;;;;;;;4.50;4.20;;;25.80;81.60;;;;;;5116634;28;20460;-69
2022/10/03 01:35:29;;;;;;;4.53;4.10;;;25.60;82.50;;;;;;5125437;28;20498;-68
2022/10/03 01:38:13;;;;;;;4.83;4.43;;;25.40;85.20;;;;;;5138910;28;20520;-69
2022/10/03 01:40:51;;;;;;;4.93;4.53;;;25.30;84.80;;;;;;5116823;28;20460;-69
2022/10/03 01:43:25;;;;;;;5.47;4.97;;;25.10;86.70;;;;;;5136457;28;20448;-69
2022/10/03 01:46:13;;;;;;;4.27;3.87;;;25.00;86.90;;;;;;5142921;28;20451;-70
2022/10/03 01:48:52;;;;;;;4.43;4.10;;;24.80;90.00;;;;;;5112507;28;20475;-69
2022/10/03 01:51:28;;;;;;;4.60;4.20;;;24.70;90.70;;;;;;5124168;28;21191;-68
2022/10/03 01:54:17;;;;;;;4.73;4.23;;;24.50;91.60;;;;;;5142984;27;20461;-69
2022/10/03 01:56:57;;;;;;;5.20;4.80;;;24.30;92.00;;;;;;5128404;28;20452;-67
2022/10/03 01:59:39;;;;;;;4.37;3.93;;;24.10;93.50;;;;;;5123978;27;20456;-69
2022/10/03 02:02:17;;;;;;;5.53;4.93;;;24.00;94.80;;;;;;5120052;28;20479;-67
2022/10/03 02:04:58;;;;;;;8.20;6.00;;;23.80;95.90;;;;;;5023355;28;3057168;-67
2022/10/03 02:07:39;;;;;;;8.13;7.33;;;23.70;96.70;;;;;;5128915;27;20655;-67
2022/10/03 02:10:20;;;;;;;8.90;8.00;;;23.50;98.00;;;;;;5145271;27;20442;-67
2022/10/03 02:12:59;;;;;;;9.43;8.47;;;23.40;98.90;;;;;;5124784;27;20510;-67
2022/10/03 02:15:35;;;;;;;10.13;9.17;;;23.20;99.90;;;;;;5124651;27;20612;-67
2022/10/03 02:18:16;;;;;;;11.50;10.40;;;23.10;99.90;;;;;;5138601;27;20457;-68
2022/10/03 02:20:51;;;;;;;10.70;9.70;;;23.00;99.90;;;;;;5111866;27;20464;-68
2022/10/03 02:23:39;;;;;;;10.43;9.43;;;22.90;99.90;;;;;;5138091;27;20864;-68
2022/10/03 02:26:58;;;;;;;10.30;9.27;;;22.90;99.90;;;;;;5130747;27;20466;-70
2022/10/03 02:29:59;;;;;;;13.73;11.50;;;22.80;99.90;;;;;;5123734;27;20802;-68
2022/10/03 02:33:18;;;;;;;14.80;11.13;;;22.70;99.90;;;;;;5111788;27;20473;-69
2022/10/03 02:36:39;;;;;;;12.70;10.33;;;22.50;99.90;;;;;;5126724;27;20539;-69
2022/10/03 02:39:53;;;;;;;15.90;13.53;;;22.40;99.90;;;;;;5075541;28;20463;-70
2022/10/03 02:43:04;;;;;;;14.87;11.60;;;22.30;99.90;;;;;;5032610;28;20457;-70
2022/10/03 02:46:00;;;;;;;17.00;11.70;;;22.20;99.90;;;;;;4957438;29;20463;-69
2022/10/03 02:49:05;;;;;;;13.77;11.27;;;22.10;99.90;;;;;;4960000;29;20472;-69
2022/10/03 02:52:06;;;;;;;16.27;10.97;;;22.10;99.90;;;;;;4962997;29;20464;-68
2022/10/03 02:55:12;;;;;;;12.90;11.00;;;22.00;99.90;;;;;;4959756;29;20476;-69
2022/10/03 02:58:14;;;;;;;13.03;10.33;;;21.90;99.90;;;;;;4961840;29;20464;-68
2022/10/03 03:01:22;;;;;;;11.53;9.70;;;21.80;99.90;;;;;;4962237;28;20476;-69
2022/10/03 03:04:22;;;;;;;12.63;10.60;;;21.70;99.90;;;;;;4952069;29;20520;-69
2022/10/03 03:07:21;;;;;;;13.90;9.93;;;21.70;99.90;;;;;;4958842;29;20543;-69
2022/10/03 03:10:22;;;;;;;12.27;10.30;;;21.70;99.90;;;;;;4962433;28;20468;-68
2022/10/03 03:13:29;;;;;;;12.90;10.03;;;21.60;99.90;;;;;;4976999;28;20454;-67
2022/10/03 03:16:45;;;;;;;10.13;9.13;;;21.50;99.90;;;;;;5001528;28;20468;-68
2022/10/03 03:19:49;;;;;;;9.60;8.67;;;21.50;99.90;;;;;;5075208;28;20444;-68
2022/10/03 03:22:35;;;;;;;10.53;9.40;;;21.40;99.90;;;;;;5098133;27;20755;-67
2022/10/03 03:25:26;;;;;;;7.73;6.93;;;21.20;99.90;;;;;;5116364;27;20538;-69
2022/10/03 03:28:18;;;;;;;8.53;7.73;;;21.30;99.90;;;;;;5139154;27;20481;-68
2022/10/03 03:30:57;;;;;;;9.40;8.17;;;21.20;99.90;;;;;;5129249;27;20470;-68
2022/10/03 03:33:37;;;;;;;7.97;6.60;;;21.20;99.90;;;;;;5134126;27;20465;-67
2022/10/03 03:36:23;;;;;;;9.67;8.07;;;21.10;99.90;;;;;;5138245;27;20514;-69
2022/10/03 03:39:04;;;;;;;7.80;6.93;;;21.00;99.90;;;;;;5111540;27;20514;-67
2022/10/03 03:41:54;;;;;;;9.33;7.73;;;21.00;99.90;;;;;;5128562;27;20484;-70
2022/10/03 03:44:49;;;;;;;6.70;6.10;;;21.00;99.90;;;;;;5136782;27;20532;-68
2022/10/03 03:47:37;;;;;;;7.63;6.83;;;21.00;99.90;;;;;;5127506;27;20456;-71
2022/10/03 03:50:34;;;;;;;7.83;7.10;;;21.10;99.90;;;;;;5117895;27;20971;-70
2022/10/03 03:53:28;;;;;;;7.87;6.40;;;21.20;99.90;;;;;;5116344;27;20513;-68
2022/10/03 03:56:15;;;;;;;7.13;6.43;;;21.20;99.90;;;;;;5113071;28;20559;-70
2022/10/03 03:58:56;;;;;;;6.77;6.07;;;21.20;99.90;;;;;;5125727;28;20450;-69
2022/10/03 04:01:46;;;;;;;8.20;6.57;;;21.20;99.90;;;;;;5132036;27;20463;-68
2022/10/03 04:04:35;;;;;;;6.67;6.07;;;21.20;99.90;;;;;;5116546;28;20460;-68
2022/10/03 04:07:18;;;;;;;6.47;5.97;;;21.20;99.90;;;;;;5125946;28;20464;-68
2022/10/03 04:10:12;;;;;;;7.63;6.93;;;21.20;99.90;;;;;;5130328;27;20460;-68
2022/10/03 04:13:11;;;;;;;7.90;6.37;;;21.20;99.90;;;;;;5142307;28;20457;-69
2022/10/03 04:16:10;;;;;;;7.37;6.10;;;21.20;99.90;;;;;;5114115;27;20538;-69
2022/10/03 04:18:58;;;;;;;7.60;6.63;;;21.10;99.90;;;;;;5109916;27;20538;-69
2022/10/03 04:22:03;;;;;;;7.23;6.53;;;21.10;99.90;;;;;;5117275;28;20459;-70
2022/10/03 04:25:03;;;;;;;7.60;5.80;;;21.00;99.90;;;;;;5100207;28;20466;-70
2022/10/03 04:27:53;;;;;;;7.47;6.77;;;21.00;99.90;;;;;;5131185;28;20458;-70
2022/10/03 04:30:32;;;;;;;7.33;6.67;;;21.00;99.90;;;;;;5136183;28;20474;-70
2022/10/03 04:33:14;;;;;;;6.60;6.00;;;21.00;99.90;;;;;;5138599;27;20458;-69
2022/10/03 04:36:21;;;;;;;7.87;7.07;;;20.90;99.90;;;;;;5124057;28;20809;-69
2022/10/03 04:39:00;;;;;;;7.00;6.30;;;20.90;99.90;;;;;;5111688;28;20431;-70
2022/10/03 04:41:41;;;;;;;6.73;5.83;;;20.80;99.90;;;;;;5126069;27;20545;-69
2022/10/03 04:44:34;;;;;;;7.23;6.53;;;20.80;99.90;;;;;;5122244;28;20469;-68
2022/10/03 04:47:15;;;;;;;7.30;6.53;;;20.70;99.90;;;;;;5126043;28;20465;-69
2022/10/03 04:49:52;;;;;;;6.67;6.07;;;20.70;99.90;;;;;;5126083;27;20489;-69
2022/10/03 04:52:30;;;;;;;6.23;5.47;;;20.60;99.90;;;;;;5135894;28;20894;-71
2022/10/03 04:55:15;;;;;;;7.27;6.57;;;20.60;99.90;;;;;;5104182;27;20495;-69
2022/10/03 04:57:53;;;;;;;8.13;5.53;;;20.50;99.90;;;;;;5124218;27;20516;-70
2022/10/03 05:00:28;;;;;;;6.50;5.83;;;20.50;99.90;;;;;;5126085;27;20441;-69
2022/10/03 05:03:06;;;;;;;6.43;5.77;;;20.40;99.90;;;;;;5126178;27;20449;-69
2022/10/03 05:05:47;;;;;;;6.83;6.23;;;20.40;99.90;;;;;;5124511;27;20455;-69
2022/10/03 05:08:32;;;;;;;6.67;6.07;;;20.50;99.90;;;;;;5122618;27;20436;-69
2022/10/03 05:11:11;;;;;;;7.40;5.73;;;20.40;99.90;;;;;;5126105;27;20456;-69
2022/10/03 05:13:58;;;;;;;7.00;6.33;;;20.40;99.90;;;;;;5124863;27;20442;-69
2022/10/03 05:16:41;;;;;;;6.37;5.67;;;20.40;99.90;;;;;;5125891;27;20452;-67
2022/10/03 05:19:35;;;;;;;6.97;6.00;;;20.30;99.90;;;;;;5126116;27;20818;-68
2022/10/03 05:22:15;;;;;;;7.93;6.00;;;20.20;99.90;;;;;;5128840;27;20428;-68
2022/10/03 05:24:56;;;;;;;6.10;5.50;;;20.10;99.90;;;;;;5130310;27;20510;-68
2022/10/03 05:27:36;;;;;;;6.67;6.07;;;20.00;99.90;;;;;;5135284;27;20460;-67
2022/10/03 05:30:15;;;;;;;6.73;5.97;;;20.00;99.90;;;;;;5146638;27;20419;-68
2022/10/03 05:32:53;;;;;;;6.63;5.23;;;20.00;99.90;;;;;;5129774;27;20475;-68
2022/10/03 05:35:32;;;;;;;6.63;5.93;;;19.90;99.90;;;;;;5124616;27;20459;-68
2022/10/03 05:38:43;;;;;;;6.30;5.60;;;19.90;99.90;;;;;;5139409;27;20484;-68
2022/10/03 05:41:23;;;;;;;6.40;5.13;;;19.80;99.90;;;;;;5089756;27;20456;-67
2022/10/03 05:44:12;;;;;;;7.57;6.87;;;19.80;99.90;;;;;;5132345;27;20479;-68
2022/10/03 05:46:59;;;;;;;6.37;5.13;;;19.70;99.90;;;;;;5130791;27;20427;-68
2022/10/03 05:49:52;;;;;;;6.30;5.70;;;19.70;99.90;;;;;;5130802;27;20442;-67
2022/10/03 05:52:40;;;;;;;5.57;5.07;;;19.60;99.90;;;;;;5118274;27;20416;-67
2022/10/03 05:55:30;;;;;;;6.67;5.97;;;19.50;99.90;;;;;;5129350;27;20503;-67
2022/10/03 05:58:39;;;;;;;6.37;5.70;;;19.50;99.90;;;;;;5144509;27;20846;-66
2022/10/03 06:01:38;;;;;;;6.17;5.57;;;19.40;99.90;;;;;;5130776;27;20479;-67
2022/10/03 06:04:49;;;;;;;5.90;5.30;;;19.40;99.90;;;;;;5117013;27;20415;-67
2022/10/03 06:07:26;;;;;;;5.30;4.80;;;19.30;99.90;;;;;;5133875;27;20431;-67
2022/10/03 06:10:27;;;;;;;6.77;5.90;;;19.20;99.90;;;;;;5125488;27;20438;-67
2022/10/03 06:13:11;;;;;;;6.20;5.60;;;19.20;99.90;;;;;;5138224;27;20881;-68
2022/10/03 06:15:53;;;;;;;6.93;5.43;;;19.20;99.90;;;;;;5134808;27;20453;-68
2022/10/03 06:18:38;;;;;;;5.97;5.37;;;19.10;99.90;;;;;;5131109;27;20492;-67
2022/10/03 06:21:47;;;;;;;6.03;5.43;;;19.10;99.90;;;;;;5125292;27;20435;-67
2022/10/03 06:24:52;;;;;;;6.97;5.53;;;19.00;99.90;;;;;;5123641;27;20433;-67
2022/10/03 06:28:07;;;;;;;6.60;4.70;;;18.90;99.90;;;;;;5110355;27;20460;-68
2022/10/03 06:31:14;;;;;;;5.97;5.10;;;18.90;99.90;;;;;;5033395;28;20465;-68
2022/10/03 06:34:08;;;;;;;6.83;5.37;;;18.80;99.90;;;;;;5030628;28;20462;-68
2022/10/03 06:36:59;;;;;;;5.90;5.40;;;18.70;99.90;;;;;;5029897;28;20435;-68
2022/10/03 06:40:25;;;;;;;6.10;5.53;;;18.70;99.90;;;;;;5056514;28;20488;-68
2022/10/03 06:43:33;;;;;;;6.50;5.77;;;18.50;99.90;;;;;;5046373;28;20502;-69
2022/10/03 06:46:34;;;;;;;8.60;4.80;;;18.40;99.90;;;;;;5057736;28;21014;-68
2022/10/03 06:49:37;;;;;;;6.00;4.70;;;18.40;99.90;;;;;;5035791;28;20453;-68
2022/10/03 06:52:31;;;;;;;6.87;5.50;;;18.40;99.90;;;;;;5060797;28;20473;-69
2022/10/03 06:55:37;;;;;;;7.50;4.93;;;18.30;99.90;;;;;;5056395;28;20570;-68
2022/10/03 06:58:42;;;;;;;6.13;5.40;;;18.20;99.90;;;;;;5052577;28;20893;-68
2022/10/03 07:02:03;;;;;;;5.77;5.07;;;18.20;99.90;;;;;;5053737;28;20485;-68
2022/10/03 07:05:09;;;;;;;5.93;5.33;;;18.10;99.90;;;;;;5044332;28;20656;-68
2022/10/03 07:08:22;;;;;;;6.30;4.80;;;18.00;99.90;;;;;;5112990;27;20534;-68
2022/10/03 07:11:07;;;;;;;4.77;4.37;;;18.00;99.90;;;;;;5117483;27;20579;-69
2022/10/03 07:14:11;;;;;;;5.83;4.87;;;18.00;99.90;;;;;;5126244;27;20477;-69
2022/10/03 07:17:12;;;;;;;6.70;5.10;;;17.90;99.90;;;;;;5124649;27;20544;-68
2022/10/03 07:20:05;;;;;;;5.50;4.80;;;17.80;99.90;;;;;;5132253;27;20480;-69
2022/10/03 07:23:20;;;;;;;5.73;4.83;;;17.80;99.90;;;;;;5131025;27;20419;-69
2022/10/03 07:26:42;;;;;;;7.40;6.17;;;17.70;99.90;;;;;;5127559;27;20496;-70
2022/10/03 07:29:53;;;;;;;6.00;5.40;;;17.70;99.90;;;;;;5108946;27;20546;-68
2022/10/03 07:32:56;;;;;;;8.10;5.47;;;17.60;99.90;;;;;;5105490;27;20433;-68
2022/10/03 07:39:26;;;;;;;7.13;5.37;;;17.50;99.90;;;;;;5116404;27;20481;-68
2022/10/03 07:42:24;;;;;;;6.40;4.90;;;17.50;99.90;;;;;;5042262;28;20457;-69
2022/10/03 07:45:19;;;;;;;6.27;5.13;;;17.50;99.90;;;;;;5031867;28;20456;-68
2022/10/03 07:48:35;;;;;;;6.93;5.00;;;17.40;99.90;;;;;;5050777;28;20460;-68
2022/10/03 07:51:23;;;;;;;7.30;5.77;;;17.30;99.90;;;;;;5033391;28;20473;-69
2022/10/03 07:54:35;;;;;;;7.57;5.73;;;17.30;99.90;;;;;;5052570;28;20457;-69
2022/10/03 07:57:37;;;;;;;7.90;5.97;;;17.20;99.90;;;;;;4974942;28;20488;-68
2022/10/03 08:00:25;;;;;;;6.10;5.07;;;17.10;99.90;;;;;;4969183;28;20495;-69
2022/10/03 08:03:39;;;;;;;6.87;5.53;;;17.10;99.90;;;;;;4967647;28;20466;-68
2022/10/03 08:06:22;;;;;;;8.50;5.80;;;17.10;99.90;;;;;;4980166;28;20491;-69
2022/10/03 08:09:18;;;;;;;7.10;5.33;;;17.10;99.90;;;;;;4983717;28;20510;-68
2022/10/03 08:12:19;;;;;;;10.63;6.33;;;17.00;99.90;;;;;;4972012;28;20472;-68
2022/10/03 08:15:04;;;;;;;7.80;5.37;;;17.00;99.90;;;;;;4997357;28;20499;-69
2022/10/03 08:18:05;;;;;;;7.80;5.83;;;16.90;99.90;;;;;;5029308;28;20552;-69
2022/10/03 08:20:54;;;;;;;6.70;5.43;;;16.90;99.90;;;;;;5070693;28;20786;-68
2022/10/03 08:24:18;;;;;;;5.87;5.27;;;16.90;99.90;;;;;;5080079;28;20456;-69
2022/10/03 08:27:12;;;;;;;6.03;5.33;;;16.80;99.90;;;;;;5001654;28;20463;-69
2022/10/03 08:30:04;;;;;;;6.07;5.20;;;16.90;99.90;;;;;;4988715;28;20687;-68
2022/10/03 08:32:58;;;;;;;6.77;5.10;;;16.80;99.90;;;;;;5025624;28;20510;-69
2022/10/03 08:36:05;;;;;;;6.07;5.47;;;16.70;99.90;;;;;;5081165;28;20468;-69
2022/10/03 08:39:19;;;;;;;6.57;5.67;;;16.60;99.90;;;;;;5072607;28;20500;-67
2022/10/03 08:42:32;;;;;;;6.33;5.50;;;16.50;99.90;;;;;;5038197;28;20461;-68
2022/10/03 08:45:40;;;;;;;5.13;4.47;;;16.40;99.90;;;;;;5038489;28;20462;-68
2022/10/03 08:48:47;;;;;;;10.40;5.87;;;16.50;99.90;;;;;;5039432;28;20469;-68
2022/10/03 08:52:05;;;;;;;9.30;5.37;;;16.40;99.90;;;;;;5034723;28;20461;-68
2022/10/03 08:54:58;;;;;;;7.67;5.10;;;16.50;99.90;;;;;;5024033;28;20527;-68
2022/10/03 08:58:05;;;;;;;6.73;5.60;;;16.30;99.90;;;;;;5042082;28;20440;-68
2022/10/03 09:00:59;;;;;;;6.50;5.87;;;16.20;99.90;;;;;;5062751;28;20484;-68
2022/10/03 09:04:01;;;;;;;6.10;4.90;;;16.20;99.90;;;;;;5054709;28;20467;-68
2022/10/03 09:07:01;;;;;;;5.30;4.80;;;16.30;99.90;;;;;;5042696;28;20511;-69
2022/10/03 09:10:21;;;;;;;7.13;5.80;;;16.20;99.90;;;;;;5045250;28;20493;-68
2022/10/03 09:13:22;;;;;;;8.10;6.23;;;16.00;99.90;;;;;;5054577;28;20514;-69
2022/10/03 09:16:25;;;;;;;6.70;5.93;;;16.00;99.90;;;;;;5061753;28;20456;-68
2022/10/03 09:19:10;;;;;;;7.03;5.13;;;16.00;99.90;;;;;;5129149;27;21190;-68
2022/10/03 09:22:06;;;;;;;7.10;5.50;;;15.90;99.90;;;;;;5123639;27;20512;-68
2022/10/03 09:25:09;;;;;;;7.03;4.70;;;15.90;99.90;;;;;;5117758;27;20499;-68
2022/10/03 09:27:56;;;;;;;6.40;5.20;;;15.80;99.90;;;;;;5138029;27;20482;-69
2022/10/03 09:30:41;;;;;;;6.40;4.90;;;15.80;99.90;;;;;;5119210;27;20458;-68
2022/10/03 09:33:44;;;;;;;5.40;4.90;;;15.80;99.90;;;;;;5133860;27;20526;-68
2022/10/03 09:36:47;;;;;;;7.10;5.50;;;15.60;99.90;;;;;;5127644;27;20484;-68
2022/10/03 09:39:59;;;;;;;5.30;4.80;;;15.60;99.90;;;;;;5127867;27;20486;-69
2022/10/03 09:42:55;;;;;;;6.47;5.77;;;15.60;99.90;;;;;;5124041;27;20453;-68
2022/10/03 09:46:00;;;;;;;6.83;5.83;;;15.50;99.90;;;;;;5130389;27;20466;-68
2022/10/03 09:48:47;;;;;;;5.77;5.27;;;15.50;99.90;;;;;;5139811;27;21193;-68
2022/10/03 09:51:37;;;;;;;5.33;4.50;;;15.40;99.90;;;;;;5117494;27;20469;-68
2022/10/03 09:54:35;;;;;;;6.90;4.87;;;15.40;99.90;;;;;;5126272;27;20453;-68
2022/10/03 09:57:37;;;;;;;7.57;5.27;;;15.40;99.90;;;;;;5121597;27;20478;-68
2022/10/03 10:00:24;;;;;;;8.17;5.60;;;15.40;99.90;;;;;;5120064;27;20498;-68
2022/10/03 10:03:44;;;;;;;7.83;5.27;;;15.30;99.90;;;;;;5126956;27;20453;-68
2022/10/03 10:06:33;;;;;;;7.90;5.07;;;15.30;99.90;;;;;;5134480;27;20482;-68
2022/10/03 10:09:48;;;;;;;6.70;5.37;;;15.20;99.90;;;;;;5131451;27;20879;-68
2022/10/03 10:12:54;;;;;;;6.20;5.40;;;15.30;99.90;;;;;;5114592;27;20462;-68
2022/10/03 10:15:56;;;;;;;6.37;5.73;;;15.30;99.90;;;;;;5119420;27;20517;-68
2022/10/03 10:19:13;;;;;;;6.93;5.30;;;15.30;99.90;;;;;;5126312;27;21105;-68
2022/10/03 10:22:06;;;;;;;6.80;5.50;;;15.20;99.90;;;;;;5122493;27;20505;-68
2022/10/03 10:25:15;;;;;;;8.13;5.70;;;15.10;99.90;;;;;;5110805;27;20510;-68
2022/10/03 10:28:15;;;;;;;7.10;5.20;;;15.00;99.90;;;;;;5126829;27;20515;-68
2022/10/03 10:31:28;;;;;;;6.00;5.40;;;15.10;99.90;;;;;;5125824;27;20778;-68
2022/10/03 10:34:34;;;;;;;5.03;4.53;;;15.00;99.90;;;;;;5130687;27;20492;-68
2022/10/03 10:37:37;;;;;;;8.63;5.70;;;15.00;99.90;;;;;;5129445;27;20452;-67
2022/10/03 10:40:53;;;;;;;7.10;5.50;;;15.00;99.90;;;;;;5131807;27;20885;-67
2022/10/03 10:44:06;;;;;;;6.37;5.20;;;15.00;99.90;;;;;;5120865;27;20452;-67
2022/10/03 10:47:14;;;;;;;5.33;4.77;;;15.00;99.90;;;;;;5111267;27;20536;-68
2022/10/03 10:50:29;;;;;;;6.50;5.10;;;15.00;99.90;;;;;;5124967;27;20530;-69
2022/10/03 10:53:48;;;;;;;8.50;5.47;;;14.90;99.90;;;;;;5116689;27;20460;-69
2022/10/03 10:56:50;;;;;;;6.80;5.50;;;14.80;99.90;;;;;;5051396;28;20471;-68
2022/10/03 11:00:11;;;;;;;5.80;5.17;;;14.80;99.90;;;;;;5045083;28;20554;-68
2022/10/03 11:03:37;;;;;;;6.47;4.80;;;14.70;99.90;;;;;;5044056;28;20452;-67
2022/10/03 11:06:46;;;;;;;7.97;5.37;;;14.70;99.90;;;;;;4992319;28;20601;-68
2022/10/03 11:09:55;;;;;;;5.43;4.90;;;14.70;99.90;;;;;;4971527;28;20494;-68
2022/10/03 11:13:09;;;;;;;7.93;5.10;;;14.50;99.90;;;;;;4994384;28;20487;-68
2022/10/03 11:16:33;;;;;;;7.57;5.80;;;14.50;99.90;;;;;;4974999;28;20531;-68
2022/10/03 11:19:44;;;;;;;6.07;4.67;;;14.40;99.90;;;;;;4967756;28;20498;-68
2022/10/03 11:22:51;;;;;;;5.70;4.80;;;14.40;99.90;;;;;;4948571;28;20464;-67
2022/10/03 11:26:07;;;;;;;6.70;5.50;;;14.40;99.90;;;;;;4971124;28;20461;-68
2022/10/03 11:29:22;;;;;;;7.10;5.40;;;14.40;99.90;;;;;;4991572;28;20455;-68
2022/10/03 11:32:25;;;;;;;10.23;6.20;;;14.30;99.90;;;;;;4989648;28;20472;-67
2022/10/03 11:35:27;;;;;;;6.57;5.33;;;14.30;99.90;;;;;;5004706;28;20527;-67
2022/10/03 11:38:08;;;;;;;8.20;5.63;;;14.30;99.90;;;;;;5007103;28;20552;-67
2022/10/03 11:40:50;;;;;;;8.43;6.40;;;14.30;99.90;;;;;;5007036;28;20494;-67
2022/10/03 11:44:06;;;;;;;7.43;5.67;;;14.20;99.90;;;;;;5065394;28;20467;-67
2022/10/03 11:46:52;;;;;;;7.70;6.20;;;14.20;99.90;;;;;;5095060;28;20566;-67
2022/10/03 11:49:50;;;;;;;7.00;5.60;;;14.20;99.90;;;;;;5100827;28;20450;-67
2022/10/03 11:52:31;;;;;;;6.83;5.70;;;14.20;99.90;;;;;;5100694;28;20477;-67
2022/10/03 11:55:19;;;;;;;7.33;5.80;;;14.10;99.90;;;;;;5090650;28;20450;-67
2022/10/03 11:58:00;;;;;;;7.93;6.30;;;14.10;99.90;;;;;;5082586;28;20545;-67
2022/10/03 12:00:37;;;;;;;6.53;5.23;;;14.00;99.90;;;;;;5073315;28;20610;-67
2022/10/03 12:03:25;;;;;;;7.70;5.00;;;14.10;99.90;;;;;;5098568;28;20438;-67
2022/10/03 12:08:55;;;;;;;7.90;6.27;;;14.00;99.90;;;;;;5148231;27;20445;-67
2022/10/03 12:11:28;;;;;;;11.70;6.87;;;13.90;99.90;;;;;;5134153;27;20452;-67
2022/10/03 12:14:15;;;;;;;6.07;4.90;;;13.90;99.90;;;;;;5139492;27;20462;-68
2022/10/03 12:16:59;;;;;;;7.50;5.50;;;13.90;99.90;;;;;;5112555;27;20518;-67
2022/10/03 12:19:36;;;;;;;7.73;5.93;;;13.90;99.90;;;;;;5125137;27;20488;-68
2022/10/03 12:22:21;;;;;;;9.27;6.30;;;13.90;99.90;;;;;;5131474;27;20436;-68
2022/10/03 12:24:54;;;;;;;8.07;5.70;;;13.90;99.90;;;;;;5132573;27;20514;-68
2022/10/03 12:27:31;;;;;;;9.43;5.90;;;13.80;99.90;;;;;;5115533;27;20457;-67
2022/10/03 12:30:05;;;;;;;8.87;6.90;;;13.80;99.90;;;;;;5127026;27;20837;-68
2022/10/03 12:32:48;;;;;;;7.73;6.07;;;13.70;99.90;;;;;;5132226;27;20460;-68
2022/10/03 12:35:41;;;;;;;10.00;6.53;;;13.70;99.90;;;;;;5123790;27;20457;-67
2022/10/03 12:38:50;;;;;;;8.23;6.00;;;13.70;99.90;;;;;;5141512;27;20482;-67
2022/10/03 12:41:36;;;;;;;9.03;5.93;;;13.70;99.90;;;;;;5106488;27;20484;-67
2022/10/03 12:44:22;;;;;;;9.47;5.90;;;13.70;99.90;;;;;;5126867;27;20563;-68
2022/10/03 12:47:03;;;;;;;8.33;6.10;;;13.70;99.90;;;;;;5138258;27;20536;-67
2022/10/03 12:49:52;;;;;;;8.93;5.57;;;13.70;99.90;;;;;;5129415;27;20454;-68
2022/10/03 12:52:29;;;;;;;11.77;8.50;;;13.70;99.90;;;;;;5127295;27;20477;-68
2022/10/03 12:55:12;;;;;;;12.60;8.57;;;13.70;99.90;;;;;;5128201;27;20456;-68
2022/10/03 12:57:53;;;;;;;11.70;6.90;;;13.80;99.90;;;;;;5115651;27;20461;-67
2022/10/03 13:00:27;;;;;;;9.57;6.17;;;13.80;99.90;;;;;;5132430;27;20488;-68
2022/10/03 13:03:18;;;;;;;9.20;6.87;;;13.90;99.90;;;;;;5132820;27;20495;-68
2022/10/03 13:06:13;;;;;;;10.97;7.20;;;14.00;99.90;;;;;;5130372;27;20488;-68
2022/10/03 13:09:02;;;;;;;10.93;7.80;;;14.10;99.90;;;;;;5130881;27;20460;-67
2022/10/03 13:11:44;;;;;;;9.93;6.97;;;14.20;99.90;;;;;;5140860;27;20457;-67
2022/10/03 13:14:31;;;;;;;10.67;7.93;;;14.30;99.90;;;;;;5131601;27;20460;-68
2022/10/03 13:17:13;;;;;;;11.13;8.33;;;14.30;99.90;;;;;;5133073;27;20449;-67
2022/10/03 13:19:54;;;;;;;11.40;8.20;;;14.30;99.90;;;;;;5128892;27;22176;-67
2022/10/03 13:22:34;;;;;;;13.27;8.30;;;14.30;99.90;;;;;;5125008;27;20460;-67
2022/10/03 13:25:17;;;;;;;18.90;10.73;;;14.40;99.90;;;;;;5139981;27;20468;-67
2022/10/03 13:27:53;;;;;;;13.17;9.47;;;14.40;99.90;;;;;;5115429;27;20578;-67
2022/10/03 13:30:26;;;;;;;11.60;8.33;;;14.40;99.90;;;;;;5122027;27;20460;-68
2022/10/03 13:33:00;;;;;;;16.60;9.40;;;14.50;99.90;;;;;;5145326;27;20637;-68
2022/10/03 13:38:48;;;;;;;15.93;8.87;;;14.70;99.90;;;;;;5133579;27;20453;-67
2022/10/03 13:41:42;;;;;;;14.83;10.00;;;14.70;99.90;;;;;;5115320;27;20496;-67
2022/10/03 13:44:18;;;;;;;15.40;8.57;;;14.70;99.90;;;;;;5112694;27;20476;-68
2022/10/03 13:46:53;;;;;;;13.87;10.00;;;14.70;99.90;;;;;;5119597;27;20450;-67
2022/10/03 13:49:31;;;;;;;15.27;9.90;;;14.70;99.90;;;;;;5138599;27;20489;-67
2022/10/03 13:52:09;;;;;;;13.20;9.87;;;14.90;99.90;;;;;;5116365;27;20523;-68
2022/10/03 13:55:16;;;;;;;13.60;9.30;;;14.80;99.90;;;;;;5137701;27;20452;-68
2022/10/03 13:58:02;;;;;;;14.97;9.80;;;14.80;99.90;;;;;;5137648;27;20470;-68
2022/10/03 14:00:42;;;;;;;14.63;9.50;;;14.80;99.90;;;;;;5135502;27;20506;-69
2022/10/03 14:03:23;;;;;;;16.37;10.50;;;14.80;99.90;;;;;;5126477;27;20997;-68
2022/10/03 14:06:03;;;;;;;14.20;10.10;;;14.80;99.90;;;;;;5144105;27;20480;-68
2022/10/03 14:09:18;;;;;;;15.23;10.70;;;14.80;99.90;;;;;;5144257;27;20497;-67
2022/10/03 14:12:02;;;;;;;14.77;10.50;;;14.90;99.90;;;;;;5040947;28;20544;-68
2022/10/03 14:14:56;;;;;;;15.73;10.10;;;14.90;99.90;;;;;;5039198;28;20512;-67
2022/10/03 14:17:34;;;;;;;14.77;9.57;;;14.80;99.90;;;;;;5046728;28;20460;-67
2022/10/03 14:20:22;;;;;;;15.10;10.27;;;14.70;99.90;;;;;;5050383;28;20461;-67
2022/10/03 14:23:25;;;;;;;17.70;11.03;;;14.80;99.90;;;;;;5058659;28;20468;-67
2022/10/03 14:26:01;;;;;;;16.17;9.53;;;14.90;99.90;;;;;;5027023;28;20461;-67
2022/10/03 14:28:40;;;;;;;13.73;9.87;;;14.90;99.90;;;;;;5040502;28;20456;-66
2022/10/03 14:31:20;;;;;;;17.63;12.27;;;14.90;99.90;;;;;;5027097;28;20473;-67
2022/10/03 14:33:59;;;;;;;16.40;11.10;;;14.90;99.90;;;;;;5032029;28;20453;-68
2022/10/03 14:36:41;;;;;;;18.80;10.83;;;14.90;99.90;;;;;;5044720;28;20461;-67
2022/10/03 14:39:31;;;;;;;14.70;9.93;;;14.80;99.90;;;;;;5039208;28;20453;-68
2022/10/03 14:42:35;;;;;;;15.00;11.13;;;14.80;99.90;;;;;;5031663;28;20555;-70
2022/10/03 14:45:11;;;;;;;15.07;9.93;;;14.80;99.90;;;;;;4966609;28;20496;-68
2022/10/03 14:47:50;;;;;;;16.90;11.83;;;14.90;99.90;;;;;;5040116;28;20471;-70
2022/10/03 14:50:24;;;;;;;12.83;9.60;;;15.00;99.90;;;;;;5076303;28;20460;-68
2022/10/03 14:53:01;;;;;;;14.57;10.40;;;15.00;99.90;;;;;;5082922;28;20513;-64
2022/10/03 14:55:34;;;;;;;15.60;9.97;;;15.10;99.90;;;;;;5087105;28;20535;-65
2022/10/03 14:58:07;;;;;;;15.30;10.57;;;15.10;99.90;;;;;;5073909;28;20541;-65
2022/10/03 15:00:44;;;;;;;17.87;11.10;;;15.20;99.90;;;;;;5087826;28;20443;-65
2022/10/03 15:03:25;;;;;;;13.43;9.20;;;15.20;99.90;;;;;;5080968;28;20541;-66
2022/10/03 15:06:19;;;;;;;19.13;10.57;;;15.20;99.90;;;;;;5074094;28;20594;-64